الصفحة الرئيسية
METAR-TAF:

METAR-TAF

مطار :

مطار تيد ستيفنز أنكوراج الدولي

أنكوراج, ألاسكا, الولايات المتحدة

دائرة عرض: 61-10-28N, خط طول: 149-59-46W, ارتفاع: 44 متر

مراقبة الطقس الحالي

تاريخ ووقت الإصدار 54 دقيقة قبل الساعة 08:53UTC
ريح 4 عقدة من الجنوب/الجنوب الشرقي
درجة الحرارة 12°درجة مئوية
الرطوبة 76%
ضغط 1012 hPa
الرؤية: 16.1 كم
غيوم مفككة على ارتفاع 5000 قدم
غيوم مفككة على ارتفاع 7000 قدم
غيوم مفككة على ارتفاع 16000 قدم

METAR: PANC 250853Z 16004KT 10SM BKN050 BKN070 BKN160 12/08 A2989 RMK AO2 SLP122 T01170083 401500100 56001

زمن: 01:47 (09:47 UTC)

توقعات

تاريخ ووقت الإصدار 4ساعات و 22 دقيقة قبل الساعة 05:25UTC
التوقعات صالحة من25 الساعة 06 UTC إلى 26 الساعة 12 UTC
ريح 5 عقدةمن اتجاهات متغيرة
الرؤية: 10 كم
غيوم متفرقة على ارتفاع 4000 قدم
ملبد بالغيوم على ارتفاع 6000 قدم
مؤقت
من 25 الساعة 06 UTC إلى 25 الساعة 08 UTC
غيوم مفككة على ارتفاع 4000 قدم
من 26 الساعة 0000 UTC
ريح 11 عقدة من الجنوب
الرؤية: 10 كم
ملبد بالغيوم على ارتفاع 4500 قدم
زخات في الجوار

TAF: PANC 250525Z 2506/2612 VRB05KT P6SM SCT040 OVC060 TEMPO 2506/2508 BKN040 FM260000 17011KT P6SM VCSH OVC045

أرصاد الطقس والتوقعات من أكثر من 4000 مطار (تقارير الطقس للمطار METAR والتنبؤ بالطقس بالمطارTAF).

المحطات المتاحة هي النقط الصفراء والحمراء على الخريطة.

حرك المؤشر فوق النقطة لمعرفة اسم المحطة.

ثم انقر لمعرفة أرصاد وتوقعات الطقس.

لتغيير الخارطة: اضغط على الأزرار الخضراء مع رمز الصليب الأسود للتكبير. على الزر الأخضر مع شرطة للتصغير، أو على الأسهم الخضراء للخرائط المجاورة.


METAR-TAF: